This is the latest recevied weather packets stored in our database for station/object OK1TBM-13. If no packets are shown the sender has not sent any weather packets the latest 10 day(s).
| Time | Temp. | Humidity | Pressure | Rain* | Wind** | Luminosity | Snow |
|---|---|---|---|---|---|---|---|
| 1788626401 | 19.44° C | 53% | 1017.3 hPa | 0 mm | - | 34 W/m² | - |
| 1788626101 | 19.44° C | 53% | 1017.3 hPa | 0 mm | - | 42 W/m² | - |
| 1788625501 | 20.56° C | 51% | 1016.9 hPa | 0 mm | - | 48 W/m² | - |
| 1788625202 | 20.56° C | 51% | 1016.9 hPa | 0 mm | - | 52 W/m² | - |
| 1788624907 | 21.11° C | 50% | 1016.9 hPa | 0 mm | - | 71 W/m² | - |
| 1788624601 | 21.11° C | 51% | 1016.9 hPa | 0 mm | - | 58 W/m² | - |
| 1788624301 | 21.67° C | 51% | 1016.9 hPa | 0 mm | - | 106 W/m² | - |
| 1788623701 | 21.67° C | 47% | 1016.9 hPa | 0 mm | - | 120 W/m² | - |
| 1788623402 | 21.11° C | 50% | 1016.9 hPa | 0 mm | - | 68 W/m² | - |
| 1788623102 | 21.67° C | 49% | 1016.9 hPa | 0 mm | - | 88 W/m² | - |
| 1788622802 | 21.67° C | 49% | 1016.9 hPa | 0 mm | - | 171 W/m² | - |
| 1788622502 | 21.67° C | 49% | 1016.9 hPa | 0 mm | - | 213 W/m² | - |
| 1788622201 | 21.67° C | 49% | 1016.9 hPa | 0 mm | - | 142 W/m² | - |
| 1788621901 | 21.67° C | 49% | 1016.9 hPa | 0 mm | - | 259 W/m² | - |
| 1788621301 | 21.67° C | 49% | 1016.6 hPa | 0 mm | - | 154 W/m² | - |
| 1788621001 | 21.67° C | 50% | 1016.6 hPa | 0 mm | - | 233 W/m² | - |
| 1788620712 | 21.67° C | 50% | 1016.6 hPa | 0 mm | - | 123 W/m² | - |
| 1788620402 | 22.22° C | 49% | 1016.9 hPa | 0 mm | - | 318 W/m² | - |
| 1788620101 | 21.11° C | 51% | 1016.9 hPa | 0 mm | - | 132 W/m² | - |
| 1788619801 | 21.67° C | 50% | 1016.9 hPa | 0 mm | - | 104 W/m² | - |
| 1788619502 | 21.67° C | 50% | 1016.9 hPa | 0 mm | - | 99 W/m² | - |
| 1788619201 | 21.67° C | 49% | 1016.9 hPa | 0 mm | - | 101 W/m² | - |
| 1788618901 | 22.22° C | 48% | 1016.9 hPa | 0 mm | - | 466 W/m² | - |
| 1788618302 | 22.78° C | 48% | 1016.6 hPa | 0 mm | - | 457 W/m² | - |
| 1788618002 | 22.78° C | 48% | 1016.6 hPa | 0 mm | - | 484 W/m² | - |
* Rain latest hour (hover to see other rain measurements)
** Current wind speed in m/s (hover to see current wind gust speed)